Time;durP1;ratioP1;P1;durP2;ratioP2;P2;SDS_P1;SDS_P2;PMS_P1;PMS_P2;Temp;Humidity;BMP_temperature;BMP_pressure;BME280_temperature;BME280_humidity;BME280_pressure;Samples;Min_cycle;Max_cycle;Signal;HPM_P1;HPM_P2
2022/04/04 00:00:50;;;;;;;5.90;2.90;;;2.90;77.40;;;;;;5052714;28;20040;-67
2022/04/04 00:03:16;;;;;;;6.18;2.70;;;2.90;77.30;;;;;;5062531;28;20056;-67
2022/04/04 00:05:41;;;;;;;3.80;2.40;;;2.90;77.00;;;;;;5042586;28;20140;-67
2022/04/04 00:08:08;;;;;;;4.93;2.43;;;2.90;77.30;;;;;;5044372;28;20071;-67
2022/04/04 00:10:33;;;;;;;5.88;2.78;;;2.90;77.10;;;;;;5043452;28;20041;-67
2022/04/04 00:12:59;;;;;;;6.87;3.10;;;3.00;77.10;;;;;;5055688;28;20105;-67
2022/04/04 00:15:25;;;;;;;6.83;3.47;;;3.00;77.30;;;;;;5063743;28;20552;-67
2022/04/04 00:17:51;;;;;;;6.13;3.90;;;3.00;77.10;;;;;;5024753;28;20849;-67
2022/04/04 00:20:17;;;;;;;7.93;4.70;;;3.10;77.00;;;;;;5041867;28;20039;-67
2022/04/04 00:22:43;;;;;;;8.40;4.55;;;3.10;76.80;;;;;;5056818;28;20048;-67
2022/04/04 00:25:10;;;;;;;10.10;4.43;;;3.20;77.00;;;;;;5031121;28;20109;-67
2022/04/04 00:27:36;;;;;;;8.45;5.47;;;3.30;76.90;;;;;;5033285;28;20050;-67
2022/04/04 00:30:03;;;;;;;12.82;6.07;;;3.30;76.90;;;;;;5036156;28;20098;-67
2022/04/04 00:32:29;;;;;;;12.50;6.78;;;3.40;76.90;;;;;;5063476;28;20035;-67
2022/04/04 00:34:55;;;;;;;12.57;6.57;;;3.50;76.60;;;;;;5065147;28;20085;-67
2022/04/04 00:37:21;;;;;;;16.33;7.38;;;3.60;76.70;;;;;;5058623;28;20036;-67
2022/04/04 00:39:47;;;;;;;16.13;7.93;;;3.60;76.50;;;;;;5059686;28;20036;-67
2022/04/04 00:42:16;;;;;;;12.33;7.37;;;3.70;76.30;;;;;;5040765;28;20040;-67
2022/04/04 00:44:45;;;;;;;14.68;8.80;;;3.70;76.40;;;;;;5058017;28;20131;-67
2022/04/04 00:47:11;;;;;;;11.30;7.72;;;3.70;76.40;;;;;;5052712;28;20044;-67
2022/04/04 00:49:37;;;;;;;12.47;8.43;;;3.80;76.10;;;;;;5055108;28;20452;-67
2022/04/04 00:52:03;;;;;;;14.67;8.80;;;3.80;76.10;;;;;;5065967;28;20124;-67
2022/04/04 00:54:29;;;;;;;13.90;8.60;;;3.90;76.00;;;;;;5048942;28;20089;-67
2022/04/04 00:56:55;;;;;;;14.87;8.33;;;3.90;76.00;;;;;;5047865;28;20041;-67
2022/04/04 00:59:23;;;;;;;13.60;7.70;;;4.00;75.80;;;;;;5046092;28;20047;-67
2022/04/04 01:01:49;;;;;;;16.08;7.82;;;4.10;75.70;;;;;;5051745;28;20730;-67
2022/04/04 01:04:16;;;;;;;16.00;8.03;;;4.10;75.80;;;;;;5062529;28;20048;-67
2022/04/04 01:06:43;;;;;;;16.50;8.18;;;4.10;75.70;;;;;;5052685;28;20051;-67
2022/04/04 01:09:14;;;;;;;13.50;8.98;;;4.20;75.60;;;;;;5058277;28;20081;-67
2022/04/04 01:12:09;;;;;;;13.95;8.48;;;4.20;75.50;;;;;;5065754;28;20095;-67
2022/04/04 01:14:36;;;;;;;17.73;9.10;;;4.20;75.60;;;;;;5060351;28;20036;-67
2022/04/04 01:17:03;;;;;;;17.63;9.10;;;4.30;75.70;;;;;;5041532;28;20036;-67
2022/04/04 01:19:29;;;;;;;20.17;9.68;;;4.30;75.60;;;;;;5044546;28;20048;-67
2022/04/04 01:21:55;;;;;;;14.35;9.52;;;4.30;75.90;;;;;;5046720;28;20097;-67
2022/04/04 01:24:22;;;;;;;17.07;9.50;;;4.40;76.20;;;;;;5059576;28;20044;-67
2022/04/04 01:26:48;;;;;;;15.10;9.38;;;4.40;76.20;;;;;;5057057;28;20307;-67
2022/04/04 01:29:14;;;;;;;15.25;9.73;;;4.50;76.40;;;;;;5056589;28;20047;-67
2022/04/04 01:31:40;;;;;;;17.83;9.90;;;4.50;76.20;;;;;;5041035;28;20443;-67
2022/04/04 01:34:06;;;;;;;18.10;10.18;;;4.50;76.20;;;;;;5052841;28;20040;-67
2022/04/04 01:36:32;;;;;;;14.00;10.07;;;4.60;76.20;;;;;;5055605;28;20511;-67
2022/04/04 01:38:57;;;;;;;15.57;9.70;;;4.60;76.40;;;;;;5053108;28;20131;-67
2022/04/04 01:41:24;;;;;;;16.20;9.70;;;4.60;76.30;;;;;;5044463;28;20127;-67
2022/04/04 01:43:51;;;;;;;16.73;9.60;;;4.60;76.40;;;;;;5043804;28;20044;-67
2022/04/04 01:46:29;;;;;;;17.13;10.07;;;4.60;76.40;;;;;;5026937;28;20052;-67
2022/04/04 01:48:58;;;;;;;17.33;10.18;;;4.60;76.30;;;;;;5052164;28;20054;-67
2022/04/04 01:51:24;;;;;;;15.55;9.48;;;4.60;76.70;;;;;;5034581;28;20052;-67
2022/04/04 01:53:51;;;;;;;16.88;10.25;;;4.60;76.40;;;;;;5076738;28;20041;-67
2022/04/04 01:56:16;;;;;;;18.70;9.90;;;4.70;76.40;;;;;;5056564;28;20041;-67
2022/04/04 01:58:42;;;;;;;18.27;10.53;;;4.70;75.90;;;;;;5056918;28;20043;-67
2022/04/04 02:01:11;;;;;;;16.80;10.82;;;4.70;75.90;;;;;;5052159;28;20291;-67
2022/04/04 02:03:37;;;;;;;20.65;11.10;;;4.80;75.90;;;;;;5045539;28;20451;-67
2022/04/04 02:06:03;;;;;;;18.10;11.57;;;4.80;75.80;;;;;;5028712;28;20044;-67
2022/04/04 02:08:31;;;;;;;17.25;11.50;;;4.80;75.70;;;;;;5041007;28;20044;-67
2022/04/04 02:10:57;;;;;;;18.17;11.35;;;4.80;75.50;;;;;;5066387;28;20082;-67
2022/04/04 02:13:25;;;;;;;23.38;12.60;;;4.80;75.50;;;;;;5064988;28;20038;-67
2022/04/04 02:15:52;;;;;;;19.10;11.57;;;4.80;75.50;;;;;;5046913;28;20036;-67
2022/04/04 02:18:18;;;;;;;18.52;11.80;;;4.80;75.50;;;;;;5058715;28;20056;-67
2022/04/04 02:20:44;;;;;;;17.15;11.45;;;4.90;75.20;;;;;;5049176;28;20051;-67
2022/04/04 02:23:10;;;;;;;17.17;12.30;;;4.90;75.20;;;;;;5043177;28;20044;-67
2022/04/04 02:25:37;;;;;;;19.90;12.60;;;4.90;75.20;;;;;;5028830;28;20038;-67
2022/04/04 02:28:03;;;;;;;18.33;12.13;;;4.90;75.10;;;;;;5059508;28;20694;-67
2022/04/04 02:30:29;;;;;;;17.00;11.68;;;4.80;75.40;;;;;;5054397;28;20051;-67
2022/04/04 02:32:55;;;;;;;19.92;12.18;;;4.90;75.40;;;;;;5037541;28;20055;-67
2022/04/04 02:35:21;;;;;;;21.13;12.70;;;4.90;75.30;;;;;;5044796;28;20415;-67
2022/04/04 02:37:47;;;;;;;17.63;12.20;;;4.80;75.50;;;;;;5035787;28;20044;-67
2022/04/04 02:40:13;;;;;;;17.55;12.27;;;4.80;75.70;;;;;;5036183;28;20369;-67
2022/04/04 02:42:39;;;;;;;18.00;12.23;;;4.80;75.50;;;;;;5052746;28;20119;-67
2022/04/04 02:45:06;;;;;;;20.95;12.20;;;4.90;75.60;;;;;;5039605;28;20338;-67
2022/04/04 02:47:32;;;;;;;22.52;12.82;;;4.90;75.50;;;;;;5049900;28;20131;-67
2022/04/04 02:49:57;;;;;;;20.73;13.27;;;4.90;75.70;;;;;;5045991;28;20150;-67
2022/04/04 02:52:23;;;;;;;19.07;12.47;;;4.90;75.60;;;;;;5031626;28;20056;-67
2022/04/04 02:54:49;;;;;;;23.00;11.53;;;4.90;75.60;;;;;;5061811;28;20047;-67
2022/04/04 02:57:17;;;;;;;17.33;11.83;;;4.90;75.50;;;;;;5064774;28;20035;-67
2022/04/04 02:59:43;;;;;;;16.08;11.55;;;4.90;75.40;;;;;;5026878;28;20032;-67
2022/04/04 03:02:09;;;;;;;19.38;12.73;;;5.00;75.30;;;;;;5076999;28;20072;-67
2022/04/04 03:04:36;;;;;;;18.60;11.67;;;5.00;75.20;;;;;;5062304;28;20084;-67
2022/04/04 03:07:02;;;;;;;17.05;11.45;;;5.00;75.00;;;;;;5049402;28;20289;-65
2022/04/04 03:09:27;;;;;;;18.13;11.03;;;5.00;75.10;;;;;;5035388;28;20039;-65
2022/04/04 03:11:53;;;;;;;15.70;11.37;;;5.10;74.90;;;;;;5049775;28;20119;-65
2022/04/04 03:14:19;;;;;;;21.77;12.80;;;5.10;75.20;;;;;;5046329;28;20036;-65
2022/04/04 03:16:44;;;;;;;19.53;11.43;;;5.10;75.50;;;;;;5018240;28;20512;-65
2022/04/04 03:19:10;;;;;;;19.87;11.63;;;5.10;76.00;;;;;;5032332;28;20119;-65
2022/04/04 03:21:36;;;;;;;19.30;11.17;;;5.00;76.70;;;;;;5057475;28;20044;-65
2022/04/04 03:24:01;;;;;;;17.97;11.47;;;5.00;76.80;;;;;;5060668;28;21162;-65
2022/04/04 03:26:31;;;;;;;21.63;12.70;;;5.00;77.20;;;;;;5026112;28;20105;-65
2022/04/04 03:28:57;;;;;;;19.52;11.98;;;5.00;77.10;;;;;;5034675;28;20044;-67
2022/04/04 03:31:23;;;;;;;20.25;12.43;;;5.00;77.60;;;;;;5042578;28;20071;-67
2022/04/04 03:33:49;;;;;;;17.53;11.50;;;4.90;78.20;;;;;;5055033;28;20067;-67
2022/04/04 03:36:14;;;;;;;20.77;12.10;;;4.90;78.00;;;;;;5036156;28;20032;-67
2022/04/04 03:38:40;;;;;;;20.63;12.60;;;4.90;78.30;;;;;;5040126;28;20036;-67
2022/04/04 03:41:06;;;;;;;26.77;13.30;;;4.90;78.70;;;;;;5046306;28;20040;-67
2022/04/04 03:43:32;;;;;;;20.90;10.93;;;4.90;79.50;;;;;;5051776;28;20040;-67
2022/04/04 03:45:58;;;;;;;19.27;9.37;;;4.80;78.80;;;;;;5070017;28;20127;-67
2022/04/04 03:48:23;;;;;;;14.13;8.53;;;4.90;78.20;;;;;;5045219;28;20044;-67
2022/04/04 03:50:51;;;;;;;14.27;8.70;;;4.90;77.90;;;;;;5028212;28;20058;-67
2022/04/04 03:53:17;;;;;;;15.45;8.23;;;4.90;76.80;;;;;;5060159;28;20056;-67
2022/04/04 03:55:43;;;;;;;16.10;9.63;;;4.90;77.30;;;;;;5060699;28;20173;-68
2022/04/04 03:58:10;;;;;;;15.13;10.27;;;4.80;77.60;;;;;;5061140;28;20028;-67
2022/04/04 04:00:38;;;;;;;16.95;9.45;;;4.80;77.40;;;;;;5037554;28;20127;-68
2022/04/04 04:03:04;;;;;;;18.80;9.55;;;4.80;78.20;;;;;;5044731;28;20044;-67
2022/04/04 04:05:30;;;;;;;19.92;10.23;;;4.80;78.10;;;;;;5056711;28;20032;-68
2022/04/04 04:07:56;;;;;;;15.40;10.07;;;4.80;78.70;;;;;;5063052;28;20039;-68
2022/04/04 04:10:22;;;;;;;21.53;11.37;;;4.70;79.10;;;;;;5057366;28;20075;-67
2022/04/04 04:12:48;;;;;;;17.10;10.52;;;4.70;79.10;;;;;;5042299;28;20052;-68
2022/04/04 04:15:17;;;;;;;18.02;10.57;;;4.80;79.00;;;;;;5041258;28;20043;-68
2022/04/04 04:17:43;;;;;;;20.63;11.38;;;4.70;79.80;;;;;;5064872;28;20043;-69
2022/04/04 04:20:31;;;;;;;17.75;10.18;;;4.70;79.80;;;;;;5059333;28;20032;-68
2022/04/04 04:23:00;;;;;;;19.98;10.82;;;4.70;79.70;;;;;;5056215;28;20047;-69
2022/04/04 04:25:28;;;;;;;18.70;11.10;;;4.70;80.40;;;;;;5062929;28;20074;-69
2022/04/04 04:27:55;;;;;;;20.60;11.40;;;4.60;80.70;;;;;;5044827;28;20028;-69
2022/04/04 04:30:21;;;;;;;20.85;10.73;;;4.60;81.50;;;;;;5040596;28;20039;-69
2022/04/04 04:32:49;;;;;;;19.57;10.80;;;4.60;81.70;;;;;;5057896;28;20475;-69
2022/04/04 04:35:16;;;;;;;18.63;10.95;;;4.60;82.00;;;;;;5062605;28;20054;-69
2022/04/04 04:37:42;;;;;;;16.77;10.18;;;4.60;82.10;;;;;;5060672;28;20101;-68
2022/04/04 04:40:09;;;;;;;24.00;11.73;;;4.60;82.00;;;;;;5060178;28;20032;-69
2022/04/04 04:42:36;;;;;;;21.38;11.00;;;4.60;82.10;;;;;;5035980;28;20037;-69
2022/04/04 04:45:03;;;;;;;21.38;11.57;;;4.70;82.10;;;;;;5056356;28;20047;-69
2022/04/04 04:47:29;;;;;;;19.02;12.05;;;4.70;81.80;;;;;;5058610;28;20119;-69
2022/04/04 04:49:55;;;;;;;20.00;11.00;;;4.70;82.10;;;;;;5048552;28;20563;-69
2022/04/04 04:52:21;;;;;;;21.02;10.52;;;4.70;82.10;;;;;;5054396;28;20131;-69
2022/04/04 04:54:47;;;;;;;19.83;11.33;;;4.70;81.80;;;;;;5060356;28;20126;-69
2022/04/04 04:57:13;;;;;;;19.27;10.93;;;4.70;81.80;;;;;;5037000;28;20417;-69
2022/04/04 04:59:39;;;;;;;18.43;11.00;;;4.70;81.30;;;;;;5036769;28;20037;-69
2022/04/04 05:02:05;;;;;;;21.73;10.97;;;4.60;81.00;;;;;;5055659;28;20243;-69
2022/04/04 05:04:30;;;;;;;20.80;10.17;;;4.60;81.00;;;;;;5058943;28;20050;-69
2022/04/04 05:06:56;;;;;;;15.33;8.60;;;4.60;80.70;;;;;;5057452;28;20032;-69
2022/04/04 05:09:22;;;;;;;13.53;7.70;;;4.50;80.60;;;;;;5049159;28;20055;-69
2022/04/04 05:11:48;;;;;;;15.00;7.70;;;4.50;81.00;;;;;;5063491;28;20049;-69
2022/04/04 05:14:16;;;;;;;13.02;7.43;;;4.40;80.90;;;;;;5044634;28;20385;-69
2022/04/04 05:16:46;;;;;;;11.43;7.20;;;4.40;80.70;;;;;;5025663;28;20063;-70
2022/04/04 05:19:13;;;;;;;6.68;4.82;;;4.40;80.70;;;;;;5059696;28;20085;-70
2022/04/04 05:21:40;;;;;;;7.45;3.45;;;4.30;79.70;;;;;;5054358;28;20469;-69
2022/04/04 05:24:07;;;;;;;10.27;3.58;;;4.30;79.20;;;;;;5050687;28;20118;-69
2022/04/04 05:26:33;;;;;;;9.52;3.50;;;4.30;79.40;;;;;;5058551;28;20040;-70
2022/04/04 05:28:59;;;;;;;8.23;3.00;;;4.20;80.00;;;;;;5042736;28;20040;-70
2022/04/04 05:31:25;;;;;;;5.78;2.20;;;4.10;80.50;;;;;;5044294;28;20040;-70
2022/04/04 05:33:51;;;;;;;6.87;2.03;;;4.00;80.30;;;;;;5063649;28;20055;-70
2022/04/04 05:36:20;;;;;;;9.15;2.03;;;4.00;80.40;;;;;;5053931;28;20290;-70
2022/04/04 05:38:50;;;;;;;7.10;1.83;;;3.90;80.60;;;;;;5038885;28;20477;-70
2022/04/04 05:41:17;;;;;;;4.85;2.00;;;3.90;80.90;;;;;;5054316;28;20123;-70
2022/04/04 05:43:44;;;;;;;5.05;1.92;;;3.90;81.20;;;;;;5047326;28;20036;-70
2022/04/04 05:46:15;;;;;;;8.18;1.83;;;3.80;81.40;;;;;;5057733;28;20071;-70
2022/04/04 05:48:41;;;;;;;9.30;2.00;;;3.80;81.40;;;;;;5058010;28;20079;-71
2022/04/04 05:51:08;;;;;;;6.82;2.05;;;3.80;81.70;;;;;;5064148;28;20048;-71
2022/04/04 05:53:34;;;;;;;6.20;2.38;;;3.80;81.60;;;;;;5042947;28;20060;-71
2022/04/04 05:56:00;;;;;;;7.18;2.20;;;3.80;81.70;;;;;;5059388;28;20036;-70
2022/04/04 05:58:26;;;;;;;9.82;2.03;;;3.90;82.00;;;;;;5032735;28;20151;-70
2022/04/04 06:00:53;;;;;;;7.27;2.33;;;3.90;82.10;;;;;;5058881;28;20194;-70
2022/04/04 06:03:19;;;;;;;6.70;2.67;;;3.90;82.40;;;;;;5056577;28;20049;-70
2022/04/04 06:05:49;;;;;;;7.80;3.10;;;4.00;82.10;;;;;;5060547;28;20047;-70
2022/04/04 06:08:18;;;;;;;11.38;3.60;;;4.00;82.00;;;;;;5043110;28;20036;-70
2022/04/04 06:10:47;;;;;;;10.75;3.90;;;4.10;81.50;;;;;;5068486;28;20040;-70
2022/04/04 06:13:17;;;;;;;7.00;3.80;;;4.10;81.30;;;;;;5037062;28;20043;-70
2022/04/04 06:15:43;;;;;;;7.53;3.60;;;4.20;81.00;;;;;;5036302;28;20059;-70
2022/04/04 06:18:10;;;;;;;10.55;4.43;;;4.20;81.30;;;;;;5063775;28;20085;-70
2022/04/04 06:20:36;;;;;;;8.73;4.32;;;4.20;81.50;;;;;;5033301;28;20032;-70
2022/04/04 06:23:04;;;;;;;9.75;4.45;;;4.20;81.90;;;;;;5041984;28;20068;-70
2022/04/04 06:25:30;;;;;;;9.35;4.72;;;4.30;82.00;;;;;;5042004;28;20044;-70
2022/04/04 06:27:55;;;;;;;12.70;5.22;;;4.30;82.00;;;;;;5056263;28;20127;-70
2022/04/04 06:30:22;;;;;;;10.17;5.07;;;4.40;82.10;;;;;;5067148;28;20131;-70
2022/04/04 06:32:48;;;;;;;13.55;5.38;;;4.40;82.40;;;;;;5059682;28;20104;-70
2022/04/04 06:35:15;;;;;;;12.90;5.75;;;4.40;82.80;;;;;;5059770;28;20036;-70
2022/04/04 06:37:42;;;;;;;14.30;5.68;;;4.40;83.00;;;;;;5060909;28;20040;-70
2022/04/04 06:40:09;;;;;;;12.27;5.82;;;4.40;83.00;;;;;;5064379;28;20396;-70
2022/04/04 06:42:40;;;;;;;14.55;6.05;;;4.40;83.30;;;;;;5063767;28;20051;-70
2022/04/04 06:45:07;;;;;;;12.13;6.60;;;4.50;83.50;;;;;;5058151;28;20101;-70
2022/04/04 06:47:33;;;;;;;14.13;7.40;;;4.50;83.70;;;;;;5056924;28;20059;-70
2022/04/04 06:50:00;;;;;;;13.93;8.50;;;4.50;83.80;;;;;;5027934;28;20119;-69
2022/04/04 06:52:26;;;;;;;16.90;8.60;;;4.60;84.00;;;;;;5060837;28;20052;-70
2022/04/04 06:54:53;;;;;;;17.50;9.40;;;4.70;83.90;;;;;;5062275;28;20040;-70
2022/04/04 06:57:20;;;;;;;19.33;9.68;;;4.70;83.90;;;;;;5039377;28;20123;-70
2022/04/04 06:59:46;;;;;;;19.33;9.20;;;4.80;83.60;;;;;;5037134;28;20070;-70
2022/04/04 07:02:12;;;;;;;22.25;10.13;;;4.90;83.50;;;;;;5058952;28;20044;-70
2022/04/04 07:04:38;;;;;;;17.60;10.43;;;4.90;83.40;;;;;;5022391;28;20055;-70
2022/04/04 07:07:04;;;;;;;20.17;11.70;;;4.90;83.80;;;;;;5034245;28;20101;-70
2022/04/04 07:09:30;;;;;;;20.05;11.25;;;5.00;83.80;;;;;;5033787;28;20038;-70
2022/04/04 07:11:57;;;;;;;21.93;12.97;;;5.00;84.20;;;;;;5036835;28;20097;-70
2022/04/04 07:14:24;;;;;;;24.05;12.38;;;5.00;84.50;;;;;;5057081;28;20036;-70
2022/04/04 07:16:52;;;;;;;21.55;11.73;;;5.00;84.70;;;;;;5040944;28;20059;-71
2022/04/04 07:19:22;;;;;;;21.73;12.60;;;5.00;85.10;;;;;;5036525;28;20035;-70
2022/04/04 07:21:48;;;;;;;22.88;12.55;;;5.00;85.40;;;;;;5052998;28;20123;-70
2022/04/04 07:24:13;;;;;;;21.63;13.05;;;5.00;85.70;;;;;;5034301;28;20048;-71
2022/04/04 07:26:39;;;;;;;30.33;18.73;;;5.00;85.70;;;;;;5006018;28;20420;-71
2022/04/04 07:29:05;;;;;;;29.00;18.80;;;5.00;85.90;;;;;;5034665;28;20050;-71
2022/04/04 07:31:31;;;;;;;27.83;17.77;;;5.00;86.20;;;;;;5028471;28;20106;-71
2022/04/04 07:33:57;;;;;;;26.33;17.17;;;5.00;86.40;;;;;;5038482;28;20044;-71
2022/04/04 07:36:22;;;;;;;20.05;10.75;;;5.10;86.40;;;;;;5011607;28;20066;-71
2022/04/04 07:38:48;;;;;;;24.07;11.37;;;5.10;86.40;;;;;;5030626;28;20512;-71
2022/04/04 07:41:14;;;;;;;16.70;9.47;;;5.10;86.50;;;;;;5040375;28;20044;-70
2022/04/04 07:43:39;;;;;;;21.67;11.83;;;5.10;86.40;;;;;;5061269;28;20036;-70
2022/04/04 07:46:05;;;;;;;24.23;11.07;;;5.10;86.50;;;;;;5056736;28;20386;-71
2022/04/04 07:48:32;;;;;;;24.35;11.27;;;5.10;86.60;;;;;;5042345;28;20033;-71
2022/04/04 07:50:58;;;;;;;20.02;10.18;;;5.10;86.80;;;;;;5035538;28;20151;-70
2022/04/04 07:53:24;;;;;;;24.20;11.45;;;5.10;86.70;;;;;;5033690;28;20091;-70
2022/04/04 07:55:49;;;;;;;35.10;21.43;;;5.10;86.90;;;;;;5049936;28;20036;-71
2022/04/04 07:58:17;;;;;;;18.20;9.83;;;5.10;87.10;;;;;;5038560;28;20190;-71
2022/04/04 08:00:43;;;;;;;25.13;11.68;;;5.10;87.30;;;;;;5019563;28;20048;-71
2022/04/04 08:03:09;;;;;;;17.33;9.93;;;5.10;87.50;;;;;;5032759;28;20171;-71
2022/04/04 08:05:35;;;;;;;19.23;11.07;;;5.10;87.60;;;;;;5056142;28;20528;-71
2022/04/04 08:08:01;;;;;;;18.03;10.20;;;5.10;87.80;;;;;;5056601;28;20036;-71
2022/04/04 08:10:26;;;;;;;15.60;9.60;;;5.10;87.90;;;;;;5044593;28;20045;-71
2022/04/04 08:12:52;;;;;;;15.53;8.93;;;5.10;88.10;;;;;;5049720;28;20679;-71
2022/04/04 08:15:18;;;;;;;16.97;9.30;;;5.10;88.10;;;;;;5042459;28;20048;-71
2022/04/04 08:17:45;;;;;;;14.57;8.65;;;5.10;88.10;;;;;;5035309;28;20051;-72
2022/04/04 08:20:11;;;;;;;12.15;8.30;;;5.20;88.00;;;;;;5032652;28;20041;-72
2022/04/04 08:22:42;;;;;;;13.07;7.30;;;5.20;87.80;;;;;;5013176;28;20045;-72
2022/04/04 08:25:09;;;;;;;14.35;8.30;;;5.30;87.70;;;;;;5039115;28;20056;-71
2022/04/04 08:27:38;;;;;;;13.32;7.60;;;5.30;87.40;;;;;;5056538;28;20622;-72
2022/04/04 08:30:06;;;;;;;12.27;6.93;;;5.30;87.40;;;;;;5054570;28;20056;-72
2022/04/04 08:32:32;;;;;;;12.60;6.22;;;5.40;87.40;;;;;;5035985;28;20037;-72
2022/04/04 08:34:58;;;;;;;9.23;5.22;;;5.40;87.10;;;;;;5047141;28;20040;-71
2022/04/04 08:37:24;;;;;;;13.13;6.67;;;5.40;86.80;;;;;;5024208;28;20032;-72
2022/04/04 08:39:50;;;;;;;15.73;5.93;;;5.50;86.70;;;;;;5067279;28;20040;-72
2022/04/04 08:42:20;;;;;;;9.93;5.40;;;5.50;86.90;;;;;;5047030;28;20082;-72
2022/04/04 08:44:48;;;;;;;8.68;5.05;;;5.50;86.80;;;;;;5036810;28;20060;-72
2022/04/04 08:47:18;;;;;;;7.28;4.15;;;5.60;86.60;;;;;;5056334;28;20044;-71
2022/04/04 08:49:43;;;;;;;11.20;4.53;;;5.60;86.50;;;;;;5036104;28;20045;-72
2022/04/04 08:52:09;;;;;;;11.70;5.20;;;5.60;86.50;;;;;;5037068;28;20045;-72
2022/04/04 08:54:35;;;;;;;11.00;4.53;;;5.60;86.60;;;;;;5018750;28;20044;-72
2022/04/04 08:57:00;;;;;;;13.90;4.83;;;5.70;86.70;;;;;;5043979;28;20208;-72
2022/04/04 08:59:26;;;;;;;11.17;4.73;;;5.70;86.80;;;;;;5034438;28;20114;-72
2022/04/04 09:01:53;;;;;;;9.40;3.87;;;5.70;86.90;;;;;;5042561;28;20056;-72
2022/04/04 09:04:19;;;;;;;8.50;3.92;;;5.80;86.50;;;;;;5039346;28;20040;-72
2022/04/04 09:06:52;;;;;;;13.60;4.63;;;5.80;86.70;;;;;;5035554;28;20114;-72
2022/04/04 09:09:25;;;;;;;11.25;4.72;;;5.80;86.60;;;;;;5062554;28;20040;-72
2022/04/04 09:12:05;;;;;;;8.02;4.05;;;5.80;86.70;;;;;;5032253;28;20045;-72
2022/04/04 09:14:35;;;;;;;9.85;4.20;;;5.90;86.80;;;;;;5049962;28;20302;-72
2022/04/04 09:17:01;;;;;;;8.45;3.88;;;5.90;86.70;;;;;;5052593;28;20033;-72
2022/04/04 09:19:29;;;;;;;8.53;3.80;;;5.90;86.40;;;;;;5020887;28;20036;-72
2022/04/04 09:21:56;;;;;;;10.20;4.25;;;5.90;86.70;;;;;;5038978;28;20092;-72
2022/04/04 09:24:41;;;;;;;11.75;4.28;;;5.90;86.60;;;;;;5028517;28;20045;-73
2022/04/04 09:27:32;;;;;;;10.75;4.45;;;6.00;86.80;;;;;;5045723;28;20485;-73
2022/04/04 09:30:06;;;;;;;11.10;4.72;;;6.00;86.90;;;;;;5054270;28;20110;-73
2022/04/04 09:32:41;;;;;;;11.25;5.43;;;6.00;86.80;;;;;;5056948;28;20428;-73
2022/04/04 09:35:16;;;;;;;16.23;7.18;;;6.10;86.80;;;;;;5038236;28;20039;-72
2022/04/04 09:37:50;;;;;;;11.18;5.95;;;6.10;86.90;;;;;;5054333;28;20039;-73
2022/04/04 09:40:17;;;;;;;13.10;5.18;;;6.10;87.00;;;;;;5055512;28;20111;-73
2022/04/04 09:42:56;;;;;;;12.85;4.80;;;6.10;87.30;;;;;;5033675;28;20036;-73
2022/04/04 09:45:31;;;;;;;14.88;8.02;;;6.10;87.30;;;;;;5037209;28;20053;-73
2022/04/04 09:48:01;;;;;;;9.77;5.18;;;6.10;87.50;;;;;;5025915;28;20051;-73
2022/04/04 09:50:37;;;;;;;14.82;5.68;;;6.10;87.60;;;;;;5037520;28;20086;-73
2022/04/04 09:53:08;;;;;;;14.50;5.65;;;6.10;87.60;;;;;;5053304;28;20787;-73
2022/04/04 09:55:36;;;;;;;7.88;4.22;;;6.10;87.60;;;;;;5039748;28;20033;-73
2022/04/04 09:58:07;;;;;;;12.18;4.80;;;6.10;87.80;;;;;;5053260;28;20382;-73
2022/04/04 10:00:37;;;;;;;13.57;5.32;;;6.10;87.80;;;;;;5056665;28;20420;-74
2022/04/04 10:03:05;;;;;;;9.18;4.65;;;6.10;87.90;;;;;;5035462;28;20052;-72
2022/04/04 10:05:31;;;;;;;12.88;3.67;;;6.20;88.00;;;;;;5027751;28;20048;-73
2022/04/04 10:07:58;;;;;;;11.07;3.20;;;6.20;88.00;;;;;;5054293;28;20682;-73
2022/04/04 10:10:26;;;;;;;6.43;2.75;;;6.20;88.20;;;;;;5038172;28;20076;-72
2022/04/04 10:12:52;;;;;;;6.22;3.13;;;6.30;88.30;;;;;;5051388;28;20044;-73
2022/04/04 10:15:20;;;;;;;6.60;3.03;;;6.30;88.30;;;;;;5041044;28;20037;-72
2022/04/04 10:17:46;;;;;;;10.10;3.05;;;6.30;88.50;;;;;;5053959;28;20087;-72
2022/04/04 10:20:12;;;;;;;8.97;4.43;;;6.40;88.50;;;;;;5044084;28;20040;-72
2022/04/04 10:22:38;;;;;;;8.90;3.08;;;6.40;88.40;;;;;;5056174;28;20044;-73
2022/04/04 10:25:07;;;;;;;8.57;2.80;;;6.40;88.40;;;;;;5058691;28;20097;-73
2022/04/04 10:27:34;;;;;;;6.30;2.40;;;6.40;88.60;;;;;;5045545;28;20072;-73
2022/04/04 10:30:04;;;;;;;8.23;2.83;;;6.40;88.60;;;;;;5040470;28;20049;-73
2022/04/04 10:32:31;;;;;;;8.85;3.38;;;6.50;88.40;;;;;;5029921;28;20032;-73
2022/04/04 10:34:57;;;;;;;7.72;2.53;;;6.50;88.60;;;;;;5014701;28;20087;-73
2022/04/04 10:37:30;;;;;;;8.13;2.53;;;6.50;88.70;;;;;;5033068;28;20049;-73
2022/04/04 10:39:56;;;;;;;6.00;2.20;;;6.50;88.90;;;;;;5051431;28;20049;-73
2022/04/04 10:42:31;;;;;;;4.93;2.03;;;6.50;88.90;;;;;;5045420;28;20142;-72
2022/04/04 10:44:59;;;;;;;5.45;2.28;;;6.50;88.70;;;;;;5047766;28;20067;-73
2022/04/04 10:47:27;;;;;;;5.50;1.60;;;6.60;88.90;;;;;;5046484;28;20564;-73
2022/04/04 10:50:16;;;;;;;6.82;1.70;;;6.60;89.00;;;;;;5047641;28;20049;-73
2022/04/04 10:52:43;;;;;;;5.60;1.60;;;6.60;89.00;;;;;;5045742;28;20099;-73
2022/04/04 10:55:27;;;;;;;5.95;1.90;;;6.60;89.10;;;;;;5030693;28;20048;-73
2022/04/04 10:58:09;;;;;;;8.13;2.15;;;6.70;89.10;;;;;;5039964;28;20051;-73
2022/04/04 11:00:52;;;;;;;4.72;1.40;;;6.70;89.30;;;;;;5042018;28;20040;-73
2022/04/04 11:03:30;;;;;;;3.30;1.20;;;6.70;89.40;;;;;;5039052;28;20036;-72
2022/04/04 11:09:16;;;;;;;5.47;1.88;;;6.80;89.40;;;;;;5048936;28;20049;-72
2022/04/04 11:11:55;;;;;;;4.78;1.42;;;6.80;89.40;;;;;;5058808;28;20493;-73
2022/04/04 11:14:27;;;;;;;5.75;1.67;;;6.80;89.40;;;;;;5037207;28;20071;-72
2022/04/04 11:17:52;;;;;;;3.30;1.60;;;6.90;89.50;;;;;;5059975;28;20077;-73
2022/04/04 11:20:10;;;;;;;4.32;1.20;;;7.00;89.50;;;;;;5037833;28;20110;-73
2022/04/04 11:22:43;;;;;;;3.97;1.20;;;7.00;89.30;;;;;;5053706;28;20048;-73
2022/04/04 11:25:15;;;;;;;3.75;1.15;;;7.00;89.40;;;;;;5040616;28;20048;-73
2022/04/04 11:27:41;;;;;;;5.10;2.97;;;7.00;89.30;;;;;;5055561;28;20122;-73
2022/04/04 11:30:08;;;;;;;3.93;2.40;;;7.10;89.30;;;;;;5053911;28;20037;-73
2022/04/04 11:32:38;;;;;;;3.90;2.30;;;7.10;89.30;;;;;;5051329;28;20036;-73
2022/04/04 11:35:09;;;;;;;4.05;2.30;;;7.20;89.30;;;;;;5039049;28;20036;-73
2022/04/04 11:37:46;;;;;;;4.05;2.42;;;7.20;89.50;;;;;;5056005;28;20769;-73
2022/04/04 11:40:17;;;;;;;4.72;2.25;;;7.20;89.40;;;;;;5049775;28;20037;-73
2022/04/04 11:42:51;;;;;;;5.55;3.08;;;7.30;89.40;;;;;;5056251;28;20078;-73
2022/04/04 11:45:22;;;;;;;4.93;2.67;;;7.30;89.40;;;;;;5030134;28;20415;-73
2022/04/04 11:47:52;;;;;;;7.30;3.30;;;7.30;89.40;;;;;;5040624;28;20553;-73
2022/04/04 11:50:18;;;;;;;5.65;3.40;;;7.40;89.30;;;;;;5056080;28;20540;-73
2022/04/04 11:52:59;;;;;;;7.32;4.00;;;7.40;89.40;;;;;;5027879;28;20075;-73
2022/04/04 11:55:27;;;;;;;11.70;4.78;;;7.40;89.40;;;;;;5050482;28;20401;-74
2022/04/04 11:58:25;;;;;;;10.02;4.65;;;7.40;89.50;;;;;;5041255;28;20044;-74
2022/04/04 12:00:55;;;;;;;10.77;4.78;;;7.40;89.40;;;;;;5042778;28;20049;-74
2022/04/04 12:03:25;;;;;;;8.70;4.50;;;7.50;89.50;;;;;;5053937;28;20037;-74
2022/04/04 12:05:51;;;;;;;11.35;5.00;;;7.50;89.50;;;;;;5057099;28;20481;-74
2022/04/04 12:08:18;;;;;;;11.90;5.03;;;7.50;89.70;;;;;;5047116;28;20102;-74
2022/04/04 12:10:47;;;;;;;11.70;5.55;;;7.50;89.60;;;;;;5065070;28;20084;-74
2022/04/04 12:13:21;;;;;;;13.13;5.85;;;7.60;89.60;;;;;;5039872;28;20036;-74
2022/04/04 12:15:53;;;;;;;9.65;4.90;;;7.60;89.70;;;;;;5052083;28;20567;-74
2022/04/04 12:18:37;;;;;;;10.05;5.10;;;7.70;89.70;;;;;;5056776;28;20044;-75
2022/04/04 12:21:03;;;;;;;12.68;5.32;;;7.70;89.60;;;;;;5061638;28;20124;-74
2022/04/04 12:26:17;;;;;;;11.80;5.65;;;7.70;89.60;;;;;;5048046;28;20049;-75
2022/04/04 12:28:48;;;;;;;11.38;4.97;;;7.70;89.80;;;;;;5046860;28;20525;-75
2022/04/04 12:31:26;;;;;;;13.45;5.38;;;7.80;89.90;;;;;;5039826;28;20460;-73
2022/04/04 12:34:06;;;;;;;12.80;5.30;;;7.90;89.80;;;;;;5040287;28;20098;-73
2022/04/04 12:36:40;;;;;;;9.07;5.35;;;7.90;89.80;;;;;;5057681;28;20592;-74
2022/04/04 12:39:08;;;;;;;13.18;5.90;;;8.00;89.60;;;;;;5028606;28;20041;-74
2022/04/04 12:41:51;;;;;;;14.95;6.65;;;8.00;89.60;;;;;;5033629;28;20040;-74
2022/04/04 12:44:22;;;;;;;17.10;6.53;;;8.00;89.70;;;;;;5055610;28;20057;-75
2022/04/04 12:46:49;;;;;;;15.50;6.53;;;8.10;89.70;;;;;;5039768;28;20045;-75
2022/04/04 12:49:22;;;;;;;18.08;6.55;;;8.10;89.60;;;;;;5017759;28;20558;-75
2022/04/04 12:51:58;;;;;;;17.20;7.30;;;8.20;89.60;;;;;;5049502;28;20049;-74
2022/04/04 12:54:39;;;;;;;16.35;6.57;;;8.20;89.70;;;;;;5042169;28;20089;-74
2022/04/04 12:57:07;;;;;;;21.75;7.72;;;8.30;89.60;;;;;;5047410;28;20038;-74